Three Oaks, MI (49128)

9:18 AM EST on December 29, 2014 (GMT -0500)
Red Belly Acres, Three Oaks Township | Change Station
CLOSE
Current Station
Personal Weather Station
Location: Three Oaks, MI
Elevation: 636 ft
Nearby Weather Stations

Elev 636 ft 41.81 °N, 86.65 °W | Updated 5 seconds ago

Overcast
Overcast
29.8 °F
Feels Like 30 °F
N
2.0
Wind Variable Wind from ENE
Gusts 3.0 mph

Today
High -- | Low -- °F
--% Chance of Precip.
Yesterday
High -- | Low -- °F
Precip. -- in
8:13 AM 5:23 PM
First Quarter, 59% visible
Pressure 30.32 in
Visibility 10.0 miles
Clouds Overcast 2100 ft
Windchill 30 °F
Dew Point 26 °F
Humidity 85%
Rainfall 0.00 in
Snow Depth Not available.
UV 0 out of 12
Pollen .10 out of 12
Air Quality Not available.
Flu Activity Not available.
METAR KMGC 291355Z AUTO 06003KT 10SM OVC021 M01/M06 A3032 RMK AO2

More Conditions Fewer Conditions

Pressure 30.32 in
Visibility 10.0 miles
Clouds Overcast 2100 ft
Windchill 30 °F
Dew Point 26 °F
Humidity 85%
Rainfall 0.00 in
Snow Depth Not available.
UV 0 out of 12
Pollen .10 out of 12
Air Quality Not available.
Flu Activity Not available.
METAR KMGC 291355Z AUTO 06003KT 10SM OVC021 M01/M06 A3032 RMK AO2

More Conditions Fewer Conditions

10-Day Weather Forecast

Almanac

Astronomy

Dec. 29, 2014 Rise Set
Actual Time
Civil Twilight
Nautical Twilight
Astronomical Twilight
Moon
Length of Visible Light
Length of Day
Tomorrow will be .
, % of the Moon is Illuminated

Today's Extremes

State Highs State Lows

Community

WunderPhotos

Upload Photos

1,781,587 photos uploaded!

WunderBlogs® & News

Nearby

Air Quality

  Air Quality AQ Index Pollutant
Not available.

Snow Depth

Station Depth Elevation

Earthquake Activity

City Distance Mag. Time & Date
Minimum magnitude displayed is 2.5.

Coastal Water Temperatures

Place Temperature

Nearby Weather Stations